sensor_id;sensor_type;location;lat;lon;timestamp;temperature;humidity
33739;DHT22;20063;51.730;11.110;2022-11-20T00:00:36;-3.60;99.90
33739;DHT22;20063;51.730;11.110;2022-11-20T00:03:02;-3.60;99.90
33739;DHT22;20063;51.730;11.110;2022-11-20T00:05:28;-3.60;99.90
33739;DHT22;20063;51.730;11.110;2022-11-20T00:07:53;-3.60;99.90
33739;DHT22;20063;51.730;11.110;2022-11-20T00:10:19;-3.50;99.90
33739;DHT22;20063;51.730;11.110;2022-11-20T00:12:44;-3.60;99.90
33739;DHT22;20063;51.730;11.110;2022-11-20T00:15:10;-3.50;99.90
33739;DHT22;20063;51.730;11.110;2022-11-20T00:17:36;-3.50;99.90
33739;DHT22;20063;51.730;11.110;2022-11-20T00:20:01;-3.50;99.90
33739;DHT22;20063;51.730;11.110;2022-11-20T00:22:27;-3.50;99.90
33739;DHT22;20063;51.730;11.110;2022-11-20T00:24:52;-3.50;99.90
33739;DHT22;20063;51.730;11.110;2022-11-20T00:27:18;-3.50;99.90
33739;DHT22;20063;51.730;11.110;2022-11-20T00:29:44;-3.50;99.90
33739;DHT22;20063;51.730;11.110;2022-11-20T00:32:09;-3.50;99.90
33739;DHT22;20063;51.730;11.110;2022-11-20T00:34:35;-3.50;99.90
33739;DHT22;20063;51.730;11.110;2022-11-20T00:37:00;-3.50;99.90
33739;DHT22;20063;51.730;11.110;2022-11-20T00:39:27;-3.60;99.90
33739;DHT22;20063;51.730;11.110;2022-11-20T00:41:53;-3.60;99.90
33739;DHT22;20063;51.730;11.110;2022-11-20T00:44:18;-3.60;99.90
33739;DHT22;20063;51.730;11.110;2022-11-20T00:46:44;-3.60;99.90
33739;DHT22;20063;51.730;11.110;2022-11-20T00:49:09;-3.70;99.90
33739;DHT22;20063;51.730;11.110;2022-11-20T00:51:35;-3.70;99.90
33739;DHT22;20063;51.730;11.110;2022-11-20T00:54:01;-3.70;99.90
33739;DHT22;20063;51.730;11.110;2022-11-20T00:56:27;-3.80;99.90
33739;DHT22;20063;51.730;11.110;2022-11-20T00:58:53;-3.80;99.90
33739;DHT22;20063;51.730;11.110;2022-11-20T01:01:21;-3.80;99.90
33739;DHT22;20063;51.730;11.110;2022-11-20T01:03:53;-3.80;99.90
33739;DHT22;20063;51.730;11.110;2022-11-20T01:06:23;-3.80;99.90
33739;DHT22;20063;51.730;11.110;2022-11-20T01:08:50;-3.80;99.90
33739;DHT22;20063;51.730;11.110;2022-11-20T01:11:19;-3.80;99.90
33739;DHT22;20063;51.730;11.110;2022-11-20T01:13:46;-3.90;99.90
33739;DHT22;20063;51.730;11.110;2022-11-20T01:16:16;-3.90;99.90
33739;DHT22;20063;51.730;11.110;2022-11-20T01:18:44;-3.80;99.90
33739;DHT22;20063;51.730;11.110;2022-11-20T01:21:22;-3.80;99.90
33739;DHT22;20063;51.730;11.110;2022-11-20T01:23:49;-3.80;99.90
33739;DHT22;20063;51.730;11.110;2022-11-20T01:26:21;-3.80;99.90
33739;DHT22;20063;51.730;11.110;2022-11-20T01:28:47;-3.80;99.90
33739;DHT22;20063;51.730;11.110;2022-11-20T01:31:17;-3.80;99.90
33739;DHT22;20063;51.730;11.110;2022-11-20T01:33:44;-3.80;99.90
33739;DHT22;20063;51.730;11.110;2022-11-20T01:36:10;-3.80;99.90
33739;DHT22;20063;51.730;11.110;2022-11-20T01:38:36;-3.80;99.90
33739;DHT22;20063;51.730;11.110;2022-11-20T01:41:02;-3.80;99.90
33739;DHT22;20063;51.730;11.110;2022-11-20T01:43:28;-3.80;99.90
33739;DHT22;20063;51.730;11.110;2022-11-20T01:46:16;-3.70;99.90
33739;DHT22;20063;51.730;11.110;2022-11-20T01:49:04;-3.70;99.90
33739;DHT22;20063;51.730;11.110;2022-11-20T01:51:52;-3.70;99.90
33739;DHT22;20063;51.730;11.110;2022-11-20T01:54:24;-3.70;99.90
33739;DHT22;20063;51.730;11.110;2022-11-20T01:56:52;-3.70;99.90
33739;DHT22;20063;51.730;11.110;2022-11-20T01:59:19;-3.70;99.90
33739;DHT22;20063;51.730;11.110;2022-11-20T02:01:46;-3.60;99.90
33739;DHT22;20063;51.730;11.110;2022-11-20T02:04:13;-3.70;99.90
33739;DHT22;20063;51.730;11.110;2022-11-20T02:06:46;-3.60;99.90
33739;DHT22;20063;51.730;11.110;2022-11-20T02:09:14;-3.60;99.90
33739;DHT22;20063;51.730;11.110;2022-11-20T02:11:39;-3.60;99.90
33739;DHT22;20063;51.730;11.110;2022-11-20T02:14:05;-3.70;99.90
33739;DHT22;20063;51.730;11.110;2022-11-20T02:16:35;-3.70;99.90
33739;DHT22;20063;51.730;11.110;2022-11-20T02:19:04;-3.70;99.90
33739;DHT22;20063;51.730;11.110;2022-11-20T02:24:30;-3.60;99.90
33739;DHT22;20063;51.730;11.110;2022-11-20T02:29:38;-3.70;99.90
33739;DHT22;20063;51.730;11.110;2022-11-20T02:32:05;-3.70;99.90
33739;DHT22;20063;51.730;11.110;2022-11-20T02:34:30;-3.60;99.90
33739;DHT22;20063;51.730;11.110;2022-11-20T02:36:59;-3.70;99.90
33739;DHT22;20063;51.730;11.110;2022-11-20T02:39:27;-3.70;99.90
33739;DHT22;20063;51.730;11.110;2022-11-20T02:41:54;-3.60;99.90
33739;DHT22;20063;51.730;11.110;2022-11-20T02:44:20;-3.60;99.90
33739;DHT22;20063;51.730;11.110;2022-11-20T02:46:46;-3.60;99.90
33739;DHT22;20063;51.730;11.110;2022-11-20T02:49:12;-3.60;99.90
33739;DHT22;20063;51.730;11.110;2022-11-20T02:51:37;-3.60;99.90
33739;DHT22;20063;51.730;11.110;2022-11-20T02:54:03;-3.70;99.90
33739;DHT22;20063;51.730;11.110;2022-11-20T02:56:29;-3.70;99.90
33739;DHT22;20063;51.730;11.110;2022-11-20T02:58:55;-3.70;99.90
33739;DHT22;20063;51.730;11.110;2022-11-20T03:01:21;-3.80;99.90
33739;DHT22;20063;51.730;11.110;2022-11-20T03:03:46;-3.80;99.90
33739;DHT22;20063;51.730;11.110;2022-11-20T03:06:14;-3.90;99.90
33739;DHT22;20063;51.730;11.110;2022-11-20T03:08:40;-3.90;99.90
33739;DHT22;20063;51.730;11.110;2022-11-20T03:11:08;-3.90;99.90
33739;DHT22;20063;51.730;11.110;2022-11-20T03:13:34;-3.90;99.90
33739;DHT22;20063;51.730;11.110;2022-11-20T03:16:12;-3.90;99.90
33739;DHT22;20063;51.730;11.110;2022-11-20T03:18:38;-3.90;99.90
33739;DHT22;20063;51.730;11.110;2022-11-20T03:21:05;-3.90;99.90
33739;DHT22;20063;51.730;11.110;2022-11-20T03:23:32;-3.90;99.90
33739;DHT22;20063;51.730;11.110;2022-11-20T03:26:27;-3.90;99.90
33739;DHT22;20063;51.730;11.110;2022-11-20T03:28:55;-4.00;99.90
33739;DHT22;20063;51.730;11.110;2022-11-20T03:31:40;-4.00;99.90
33739;DHT22;20063;51.730;11.110;2022-11-20T03:34:08;-3.90;99.90
33739;DHT22;20063;51.730;11.110;2022-11-20T03:36:34;-3.90;99.90
33739;DHT22;20063;51.730;11.110;2022-11-20T03:39:00;-3.90;99.90
33739;DHT22;20063;51.730;11.110;2022-11-20T03:41:28;-3.90;99.90
33739;DHT22;20063;51.730;11.110;2022-11-20T03:43:56;-3.80;99.90
33739;DHT22;20063;51.730;11.110;2022-11-20T03:46:22;-3.80;99.90
33739;DHT22;20063;51.730;11.110;2022-11-20T03:48:48;-3.80;99.90
33739;DHT22;20063;51.730;11.110;2022-11-20T03:51:17;-3.80;99.90
33739;DHT22;20063;51.730;11.110;2022-11-20T03:53:45;-3.80;99.90
33739;DHT22;20063;51.730;11.110;2022-11-20T03:56:12;-3.80;99.90
33739;DHT22;20063;51.730;11.110;2022-11-20T03:58:40;-3.80;99.90
33739;DHT22;20063;51.730;11.110;2022-11-20T04:01:16;-3.80;99.90
33739;DHT22;20063;51.730;11.110;2022-11-20T04:03:43;-3.80;99.90
33739;DHT22;20063;51.730;11.110;2022-11-20T04:06:17;-3.80;99.90
33739;DHT22;20063;51.730;11.110;2022-11-20T04:08:43;-3.90;99.90
33739;DHT22;20063;51.730;11.110;2022-11-20T04:11:19;-3.90;99.90
33739;DHT22;20063;51.730;11.110;2022-11-20T04:14:12;-4.00;99.90
33739;DHT22;20063;51.730;11.110;2022-11-20T04:16:38;-4.00;99.90
33739;DHT22;20063;51.730;11.110;2022-11-20T04:19:08;-4.00;99.90
33739;DHT22;20063;51.730;11.110;2022-11-20T04:21:34;-4.00;99.90
33739;DHT22;20063;51.730;11.110;2022-11-20T04:24:00;-4.00;99.90
33739;DHT22;20063;51.730;11.110;2022-11-20T04:26:27;-4.00;99.90
33739;DHT22;20063;51.730;11.110;2022-11-20T04:28:53;-4.00;99.90
33739;DHT22;20063;51.730;11.110;2022-11-20T04:31:25;-3.90;99.90
33739;DHT22;20063;51.730;11.110;2022-11-20T04:33:51;-3.90;99.90
33739;DHT22;20063;51.730;11.110;2022-11-20T04:36:24;-3.90;99.90
33739;DHT22;20063;51.730;11.110;2022-11-20T04:38:58;-4.00;99.90
33739;DHT22;20063;51.730;11.110;2022-11-20T04:41:26;-3.90;99.90
33739;DHT22;20063;51.730;11.110;2022-11-20T04:43:54;-3.90;99.90
33739;DHT22;20063;51.730;11.110;2022-11-20T04:46:25;-3.90;99.90
33739;DHT22;20063;51.730;11.110;2022-11-20T04:48:50;-3.90;99.90
33739;DHT22;20063;51.730;11.110;2022-11-20T04:51:16;-4.00;99.90
33739;DHT22;20063;51.730;11.110;2022-11-20T04:53:42;-4.00;99.90
33739;DHT22;20063;51.730;11.110;2022-11-20T04:56:10;-4.00;99.90
33739;DHT22;20063;51.730;11.110;2022-11-20T04:58:38;-3.90;99.90
33739;DHT22;20063;51.730;11.110;2022-11-20T05:01:10;-4.10;99.90
33739;DHT22;20063;51.730;11.110;2022-11-20T05:03:37;-4.10;99.90
33739;DHT22;20063;51.730;11.110;2022-11-20T05:06:04;-4.10;99.90
33739;DHT22;20063;51.730;11.110;2022-11-20T05:08:32;-4.10;99.90
33739;DHT22;20063;51.730;11.110;2022-11-20T05:11:06;-4.10;99.90
33739;DHT22;20063;51.730;11.110;2022-11-20T05:13:32;-4.10;99.90
33739;DHT22;20063;51.730;11.110;2022-11-20T05:16:03;-4.10;99.90
33739;DHT22;20063;51.730;11.110;2022-11-20T05:18:29;-4.10;99.90
33739;DHT22;20063;51.730;11.110;2022-11-20T05:20:56;-4.10;99.90
33739;DHT22;20063;51.730;11.110;2022-11-20T05:23:22;-4.10;99.90
33739;DHT22;20063;51.730;11.110;2022-11-20T05:25:47;-4.20;99.90
33739;DHT22;20063;51.730;11.110;2022-11-20T05:28:13;-4.10;99.90
33739;DHT22;20063;51.730;11.110;2022-11-20T05:30:39;-4.10;99.90
33739;DHT22;20063;51.730;11.110;2022-11-20T05:33:04;-4.10;99.90
33739;DHT22;20063;51.730;11.110;2022-11-20T05:35:30;-4.20;99.90
33739;DHT22;20063;51.730;11.110;2022-11-20T05:37:56;-4.10;99.90
33739;DHT22;20063;51.730;11.110;2022-11-20T05:40:21;-4.10;99.90
33739;DHT22;20063;51.730;11.110;2022-11-20T05:42:48;-4.10;99.90
33739;DHT22;20063;51.730;11.110;2022-11-20T05:45:13;-4.10;99.90
33739;DHT22;20063;51.730;11.110;2022-11-20T05:47:39;-4.10;99.90
33739;DHT22;20063;51.730;11.110;2022-11-20T05:50:05;-4.10;99.90
33739;DHT22;20063;51.730;11.110;2022-11-20T05:52:30;-4.20;99.90
33739;DHT22;20063;51.730;11.110;2022-11-20T05:54:57;-4.20;99.90
33739;DHT22;20063;51.730;11.110;2022-11-20T05:57:23;-4.20;99.90
33739;DHT22;20063;51.730;11.110;2022-11-20T05:59:48;-4.20;99.90
33739;DHT22;20063;51.730;11.110;2022-11-20T06:02:14;-4.20;99.90
33739;DHT22;20063;51.730;11.110;2022-11-20T06:04:39;-4.30;99.90
33739;DHT22;20063;51.730;11.110;2022-11-20T06:07:06;-4.30;99.90
33739;DHT22;20063;51.730;11.110;2022-11-20T06:09:32;-4.30;99.90
33739;DHT22;20063;51.730;11.110;2022-11-20T06:11:57;-4.30;99.90
33739;DHT22;20063;51.730;11.110;2022-11-20T06:14:23;-4.30;99.90
33739;DHT22;20063;51.730;11.110;2022-11-20T06:16:48;-4.30;99.90
33739;DHT22;20063;51.730;11.110;2022-11-20T06:19:14;-4.30;99.90
33739;DHT22;20063;51.730;11.110;2022-11-20T06:21:40;-4.30;99.90
33739;DHT22;20063;51.730;11.110;2022-11-20T06:24:09;-4.30;99.90
33739;DHT22;20063;51.730;11.110;2022-11-20T06:26:36;-4.30;99.90
33739;DHT22;20063;51.730;11.110;2022-11-20T06:29:01;-4.30;99.90
33739;DHT22;20063;51.730;11.110;2022-11-20T06:31:28;-4.30;99.90
33739;DHT22;20063;51.730;11.110;2022-11-20T06:33:54;-4.30;99.90
33739;DHT22;20063;51.730;11.110;2022-11-20T06:36:22;-4.30;99.90
33739;DHT22;20063;51.730;11.110;2022-11-20T06:38:48;-4.30;99.90
33739;DHT22;20063;51.730;11.110;2022-11-20T06:51:28;-4.30;99.90
33739;DHT22;20063;51.730;11.110;2022-11-20T06:53:54;-4.20;99.90
33739;DHT22;20063;51.730;11.110;2022-11-20T06:56:19;-4.20;99.90
33739;DHT22;20063;51.730;11.110;2022-11-20T07:02:11;-4.20;99.90
33739;DHT22;20063;51.730;11.110;2022-11-20T07:04:38;-4.20;99.90
33739;DHT22;20063;51.730;11.110;2022-11-20T07:07:16;-4.20;99.90
33739;DHT22;20063;51.730;11.110;2022-11-20T07:09:41;-4.20;99.90
33739;DHT22;20063;51.730;11.110;2022-11-20T07:19:29;-4.10;99.90
33739;DHT22;20063;51.730;11.110;2022-11-20T07:21:55;-4.10;99.90
33739;DHT22;20063;51.730;11.110;2022-11-20T07:27:44;-4.20;99.90
33739;DHT22;20063;51.730;11.110;2022-11-20T07:30:11;-4.20;99.90
33739;DHT22;20063;51.730;11.110;2022-11-20T07:33:01;-4.20;99.90
33739;DHT22;20063;51.730;11.110;2022-11-20T07:35:27;-4.20;99.90
33739;DHT22;20063;51.730;11.110;2022-11-20T07:37:53;-4.20;99.90
33739;DHT22;20063;51.730;11.110;2022-11-20T07:40:19;-4.20;99.90
33739;DHT22;20063;51.730;11.110;2022-11-20T07:42:52;-4.20;99.90
33739;DHT22;20063;51.730;11.110;2022-11-20T07:45:19;-4.20;99.90
33739;DHT22;20063;51.730;11.110;2022-11-20T07:47:45;-4.10;99.90
33739;DHT22;20063;51.730;11.110;2022-11-20T07:50:12;-4.10;99.90
33739;DHT22;20063;51.730;11.110;2022-11-20T07:52:41;-4.10;99.90
33739;DHT22;20063;51.730;11.110;2022-11-20T08:01:07;-3.90;99.90
33739;DHT22;20063;51.730;11.110;2022-11-20T08:03:51;-3.90;99.90
33739;DHT22;20063;51.730;11.110;2022-11-20T08:06:22;-3.80;99.90
33739;DHT22;20063;51.730;11.110;2022-11-20T08:08:50;-3.70;99.90
33739;DHT22;20063;51.730;11.110;2022-11-20T08:11:15;-3.70;99.90
33739;DHT22;20063;51.730;11.110;2022-11-20T08:14:00;-3.60;99.90
33739;DHT22;20063;51.730;11.110;2022-11-20T08:16:47;-3.60;99.90
33739;DHT22;20063;51.730;11.110;2022-11-20T08:19:14;-3.60;99.90
33739;DHT22;20063;51.730;11.110;2022-11-20T08:21:41;-3.50;99.90
33739;DHT22;20063;51.730;11.110;2022-11-20T08:24:07;-3.50;99.90
33739;DHT22;20063;51.730;11.110;2022-11-20T08:26:34;-3.40;99.90
33739;DHT22;20063;51.730;11.110;2022-11-20T08:29:00;-3.40;99.90
33739;DHT22;20063;51.730;11.110;2022-11-20T08:31:27;-3.30;99.90
33739;DHT22;20063;51.730;11.110;2022-11-20T08:33:53;-3.20;99.90
33739;DHT22;20063;51.730;11.110;2022-11-20T08:36:19;-3.20;99.90
33739;DHT22;20063;51.730;11.110;2022-11-20T08:38:53;-3.10;99.90
33739;DHT22;20063;51.730;11.110;2022-11-20T08:41:19;-3.00;99.90
33739;DHT22;20063;51.730;11.110;2022-11-20T08:43:58;-2.90;99.90
33739;DHT22;20063;51.730;11.110;2022-11-20T08:46:36;-2.90;99.90
33739;DHT22;20063;51.730;11.110;2022-11-20T08:49:03;-2.80;99.90
33739;DHT22;20063;51.730;11.110;2022-11-20T08:51:30;-2.80;99.90
33739;DHT22;20063;51.730;11.110;2022-11-20T08:53:55;-2.70;99.90
33739;DHT22;20063;51.730;11.110;2022-11-20T08:56:21;-2.60;99.90
33739;DHT22;20063;51.730;11.110;2022-11-20T08:58:46;-2.60;99.90
33739;DHT22;20063;51.730;11.110;2022-11-20T09:01:12;-2.50;99.90
33739;DHT22;20063;51.730;11.110;2022-11-20T09:03:38;-2.50;99.90
33739;DHT22;20063;51.730;11.110;2022-11-20T09:06:05;-2.30;99.90
33739;DHT22;20063;51.730;11.110;2022-11-20T09:08:32;-2.20;99.90
33739;DHT22;20063;51.730;11.110;2022-11-20T09:10:59;-1.90;99.90
33739;DHT22;20063;51.730;11.110;2022-11-20T09:13:29;-1.70;99.90
33739;DHT22;20063;51.730;11.110;2022-11-20T09:16:03;-1.50;99.90
33739;DHT22;20063;51.730;11.110;2022-11-20T09:18:31;-1.40;99.90
33739;DHT22;20063;51.730;11.110;2022-11-20T09:21:04;-1.20;99.90
33739;DHT22;20063;51.730;11.110;2022-11-20T09:23:34;-0.90;99.90
33739;DHT22;20063;51.730;11.110;2022-11-20T09:26:10;-0.70;99.90
33739;DHT22;20063;51.730;11.110;2022-11-20T09:28:38;-0.80;99.90
33739;DHT22;20063;51.730;11.110;2022-11-20T09:31:19;-0.80;99.90
33739;DHT22;20063;51.730;11.110;2022-11-20T09:33:48;-0.80;99.90
33739;DHT22;20063;51.730;11.110;2022-11-20T09:36:13;-0.90;99.90
33739;DHT22;20063;51.730;11.110;2022-11-20T09:38:42;-0.80;99.90
33739;DHT22;20063;51.730;11.110;2022-11-20T09:44:01;-0.70;99.90
33739;DHT22;20063;51.730;11.110;2022-11-20T09:46:45;-0.60;99.90
33739;DHT22;20063;51.730;11.110;2022-11-20T09:52:37;-0.40;99.90
33739;DHT22;20063;51.730;11.110;2022-11-20T09:55:10;-0.40;99.90
33739;DHT22;20063;51.730;11.110;2022-11-20T09:57:39;-0.20;99.90
33739;DHT22;20063;51.730;11.110;2022-11-20T10:00:10;-0.20;99.90
33739;DHT22;20063;51.730;11.110;2022-11-20T10:05:40;0.00;99.90
33739;DHT22;20063;51.730;11.110;2022-11-20T10:11:13;0.10;99.90
33739;DHT22;20063;51.730;11.110;2022-11-20T10:32:32;0.90;99.90
33739;DHT22;20063;51.730;11.110;2022-11-20T10:35:05;1.00;99.90
33739;DHT22;20063;51.730;11.110;2022-11-20T10:37:38;1.00;99.90
33739;DHT22;20063;51.730;11.110;2022-11-20T10:43:00;1.10;99.90
33739;DHT22;20063;51.730;11.110;2022-11-20T10:48:12;1.20;99.90
33739;DHT22;20063;51.730;11.110;2022-11-20T10:50:49;1.20;99.90
33739;DHT22;20063;51.730;11.110;2022-11-20T10:56:30;1.30;99.90
33739;DHT22;20063;51.730;11.110;2022-11-20T11:01:59;1.30;99.90
33739;DHT22;20063;51.730;11.110;2022-11-20T11:06:58;1.30;99.90
33739;DHT22;20063;51.730;11.110;2022-11-20T11:09:35;1.30;99.90
33739;DHT22;20063;51.730;11.110;2022-11-20T11:12:07;1.30;99.90
33739;DHT22;20063;51.730;11.110;2022-11-20T11:14:42;1.20;99.90
33739;DHT22;20063;51.730;11.110;2022-11-20T11:17:32;1.20;99.90
33739;DHT22;20063;51.730;11.110;2022-11-20T11:20:19;1.30;99.90
33739;DHT22;20063;51.730;11.110;2022-11-20T11:22:49;1.30;99.90
33739;DHT22;20063;51.730;11.110;2022-11-20T11:27:49;1.30;99.90
33739;DHT22;20063;51.730;11.110;2022-11-20T11:30:16;1.30;99.90
33739;DHT22;20063;51.730;11.110;2022-11-20T11:32:42;1.30;99.90
33739;DHT22;20063;51.730;11.110;2022-11-20T11:35:27;1.30;99.90
33739;DHT22;20063;51.730;11.110;2022-11-20T11:38:06;1.40;99.90
33739;DHT22;20063;51.730;11.110;2022-11-20T11:40:38;1.30;99.90
33739;DHT22;20063;51.730;11.110;2022-11-20T11:43:15;1.30;99.90
33739;DHT22;20063;51.730;11.110;2022-11-20T11:46:02;1.30;99.90
33739;DHT22;20063;51.730;11.110;2022-11-20T11:48:27;1.40;99.90
33739;DHT22;20063;51.730;11.110;2022-11-20T11:50:53;1.40;99.90
33739;DHT22;20063;51.730;11.110;2022-11-20T11:53:21;1.50;99.90
33739;DHT22;20063;51.730;11.110;2022-11-20T11:56:24;1.60;99.90
33739;DHT22;20063;51.730;11.110;2022-11-20T11:58:53;1.80;99.90
33739;DHT22;20063;51.730;11.110;2022-11-20T12:01:47;1.90;99.90
33739;DHT22;20063;51.730;11.110;2022-11-20T12:06:57;1.90;99.90
33739;DHT22;20063;51.730;11.110;2022-11-20T12:09:27;1.80;99.90
33739;DHT22;20063;51.730;11.110;2022-11-20T12:12:12;1.80;99.90
33739;DHT22;20063;51.730;11.110;2022-11-20T12:14:43;1.70;99.90
33739;DHT22;20063;51.730;11.110;2022-11-20T12:17:13;1.70;99.90
33739;DHT22;20063;51.730;11.110;2022-11-20T12:19:39;1.70;99.90
33739;DHT22;20063;51.730;11.110;2022-11-20T12:30:17;1.80;99.90
33739;DHT22;20063;51.730;11.110;2022-11-20T12:35:44;1.90;99.90
33739;DHT22;20063;51.730;11.110;2022-11-20T12:38:45;2.10;99.90
33739;DHT22;20063;51.730;11.110;2022-11-20T12:51:19;2.20;99.90
33739;DHT22;20063;51.730;11.110;2022-11-20T12:56:43;2.30;99.90
33739;DHT22;20063;51.730;11.110;2022-11-20T13:06:00;2.30;99.90
33739;DHT22;20063;51.730;11.110;2022-11-20T13:08:35;2.40;99.90
33739;DHT22;20063;51.730;11.110;2022-11-20T13:14:20;2.40;99.90
33739;DHT22;20063;51.730;11.110;2022-11-20T13:17:04;2.40;99.90
33739;DHT22;20063;51.730;11.110;2022-11-20T13:19:31;2.40;99.90
33739;DHT22;20063;51.730;11.110;2022-11-20T13:21:57;2.30;99.90
33739;DHT22;20063;51.730;11.110;2022-11-20T13:24:26;2.30;99.90
33739;DHT22;20063;51.730;11.110;2022-11-20T13:29:43;2.30;99.90
33739;DHT22;20063;51.730;11.110;2022-11-20T13:32:16;2.30;99.90
33739;DHT22;20063;51.730;11.110;2022-11-20T13:34:54;2.20;99.90
33739;DHT22;20063;51.730;11.110;2022-11-20T13:37:36;2.10;99.90
33739;DHT22;20063;51.730;11.110;2022-11-20T13:42:38;2.10;99.90
33739;DHT22;20063;51.730;11.110;2022-11-20T13:45:27;2.00;99.90
33739;DHT22;20063;51.730;11.110;2022-11-20T13:47:54;1.90;99.90
33739;DHT22;20063;51.730;11.110;2022-11-20T13:50:38;1.90;99.90
33739;DHT22;20063;51.730;11.110;2022-11-20T13:53:09;1.80;99.90
33739;DHT22;20063;51.730;11.110;2022-11-20T13:56:01;1.70;99.90
33739;DHT22;20063;51.730;11.110;2022-11-20T14:01:33;1.40;99.90
33739;DHT22;20063;51.730;11.110;2022-11-20T14:04:00;1.30;99.90
33739;DHT22;20063;51.730;11.110;2022-11-20T14:06:43;1.20;99.90
33739;DHT22;20063;51.730;11.110;2022-11-20T14:09:24;1.10;99.90
33739;DHT22;20063;51.730;11.110;2022-11-20T14:11:50;1.10;99.90
33739;DHT22;20063;51.730;11.110;2022-11-20T14:14:22;1.00;99.90
33739;DHT22;20063;51.730;11.110;2022-11-20T14:16:48;0.90;99.90
33739;DHT22;20063;51.730;11.110;2022-11-20T14:21:53;0.80;99.90
33739;DHT22;20063;51.730;11.110;2022-11-20T14:24:21;0.70;99.90
33739;DHT22;20063;51.730;11.110;2022-11-20T14:26:47;0.70;99.90
33739;DHT22;20063;51.730;11.110;2022-11-20T14:29:22;0.70;99.90
33739;DHT22;20063;51.730;11.110;2022-11-20T14:31:52;0.60;99.90
33739;DHT22;20063;51.730;11.110;2022-11-20T14:34:21;0.50;99.90
33739;DHT22;20063;51.730;11.110;2022-11-20T14:36:47;0.60;99.90
33739;DHT22;20063;51.730;11.110;2022-11-20T14:41:56;0.40;99.90
33739;DHT22;20063;51.730;11.110;2022-11-20T14:44:29;0.40;99.90
33739;DHT22;20063;51.730;11.110;2022-11-20T14:47:00;0.40;99.90
33739;DHT22;20063;51.730;11.110;2022-11-20T14:49:26;0.40;99.90
33739;DHT22;20063;51.730;11.110;2022-11-20T14:52:25;0.40;99.90
33739;DHT22;20063;51.730;11.110;2022-11-20T14:54:58;0.30;99.90
33739;DHT22;20063;51.730;11.110;2022-11-20T14:57:35;0.30;99.90
33739;DHT22;20063;51.730;11.110;2022-11-20T15:00:18;0.20;99.90
33739;DHT22;20063;51.730;11.110;2022-11-20T15:02:46;0.10;99.90
33739;DHT22;20063;51.730;11.110;2022-11-20T15:05:12;0.10;99.90
33739;DHT22;20063;51.730;11.110;2022-11-20T15:07:42;0.00;99.90
33739;DHT22;20063;51.730;11.110;2022-11-20T15:10:25;0.00;99.90
33739;DHT22;20063;51.730;11.110;2022-11-20T15:12:56;-0.10;99.90
33739;DHT22;20063;51.730;11.110;2022-11-20T15:15:33;-0.10;99.90
33739;DHT22;20063;51.730;11.110;2022-11-20T15:18:01;-0.10;99.90
33739;DHT22;20063;51.730;11.110;2022-11-20T15:20:31;-0.20;99.90
33739;DHT22;20063;51.730;11.110;2022-11-20T15:22:57;-0.20;99.90
33739;DHT22;20063;51.730;11.110;2022-11-20T15:25:22;-0.20;99.90
33739;DHT22;20063;51.730;11.110;2022-11-20T15:27:55;-0.20;99.90
33739;DHT22;20063;51.730;11.110;2022-11-20T15:30:22;-0.20;99.90
33739;DHT22;20063;51.730;11.110;2022-11-20T15:32:48;-0.20;99.90
33739;DHT22;20063;51.730;11.110;2022-11-20T15:35:14;-0.20;99.90
33739;DHT22;20063;51.730;11.110;2022-11-20T15:37:41;-0.30;99.90
33739;DHT22;20063;51.730;11.110;2022-11-20T15:40:07;-0.30;99.90
33739;DHT22;20063;51.730;11.110;2022-11-20T15:42:34;-0.40;99.90
33739;DHT22;20063;51.730;11.110;2022-11-20T15:44:59;-0.40;99.90
33739;DHT22;20063;51.730;11.110;2022-11-20T15:47:31;-0.40;99.90
33739;DHT22;20063;51.730;11.110;2022-11-20T15:49:57;-0.50;99.90
33739;DHT22;20063;51.730;11.110;2022-11-20T15:52:23;-0.50;99.90
33739;DHT22;20063;51.730;11.110;2022-11-20T15:54:48;-0.50;99.90
33739;DHT22;20063;51.730;11.110;2022-11-20T15:57:14;-0.50;99.90
33739;DHT22;20063;51.730;11.110;2022-11-20T15:59:40;-0.60;99.90
33739;DHT22;20063;51.730;11.110;2022-11-20T16:02:13;-0.50;99.90
33739;DHT22;20063;51.730;11.110;2022-11-20T16:04:39;-0.50;99.90
33739;DHT22;20063;51.730;11.110;2022-11-20T16:07:05;-0.50;99.90
33739;DHT22;20063;51.730;11.110;2022-11-20T16:09:31;-0.60;99.90
33739;DHT22;20063;51.730;11.110;2022-11-20T16:11:57;-0.60;99.90
33739;DHT22;20063;51.730;11.110;2022-11-20T16:14:26;-0.60;99.90
33739;DHT22;20063;51.730;11.110;2022-11-20T16:17:11;-0.60;99.90
33739;DHT22;20063;51.730;11.110;2022-11-20T16:19:36;-0.70;99.90
33739;DHT22;20063;51.730;11.110;2022-11-20T16:22:02;-0.70;99.90
33739;DHT22;20063;51.730;11.110;2022-11-20T16:24:28;-0.80;99.90
33739;DHT22;20063;51.730;11.110;2022-11-20T16:26:55;-0.80;99.90
33739;DHT22;20063;51.730;11.110;2022-11-20T16:29:20;-0.90;99.90
33739;DHT22;20063;51.730;11.110;2022-11-20T16:31:46;-0.80;99.90
33739;DHT22;20063;51.730;11.110;2022-11-20T16:34:12;-0.90;99.90
33739;DHT22;20063;51.730;11.110;2022-11-20T16:36:42;-1.00;99.90
33739;DHT22;20063;51.730;11.110;2022-11-20T16:39:09;-1.00;99.90
33739;DHT22;20063;51.730;11.110;2022-11-20T16:41:36;-1.00;99.90
33739;DHT22;20063;51.730;11.110;2022-11-20T16:44:06;-1.00;99.90
33739;DHT22;20063;51.730;11.110;2022-11-20T16:46:32;-1.10;99.90
33739;DHT22;20063;51.730;11.110;2022-11-20T16:49:03;-1.10;99.90
33739;DHT22;20063;51.730;11.110;2022-11-20T16:51:30;-1.10;99.90
33739;DHT22;20063;51.730;11.110;2022-11-20T16:53:56;-1.20;99.90
33739;DHT22;20063;51.730;11.110;2022-11-20T16:56:24;-1.20;99.90
33739;DHT22;20063;51.730;11.110;2022-11-20T16:58:50;-1.20;99.90
33739;DHT22;20063;51.730;11.110;2022-11-20T17:01:18;-1.20;99.90
33739;DHT22;20063;51.730;11.110;2022-11-20T17:03:46;-1.20;99.90
33739;DHT22;20063;51.730;11.110;2022-11-20T17:06:14;-1.10;99.90
33739;DHT22;20063;51.730;11.110;2022-11-20T17:08:40;-1.20;99.90
33739;DHT22;20063;51.730;11.110;2022-11-20T17:11:07;-1.20;99.90
33739;DHT22;20063;51.730;11.110;2022-11-20T17:13:34;-1.20;99.90
33739;DHT22;20063;51.730;11.110;2022-11-20T17:16:02;-1.30;99.90
33739;DHT22;20063;51.730;11.110;2022-11-20T17:18:27;-1.30;99.90
33739;DHT22;20063;51.730;11.110;2022-11-20T17:20:53;-1.30;99.90
33739;DHT22;20063;51.730;11.110;2022-11-20T17:23:18;-1.30;99.90
33739;DHT22;20063;51.730;11.110;2022-11-20T17:25:44;-1.20;99.90
33739;DHT22;20063;51.730;11.110;2022-11-20T17:28:10;-1.10;99.90
33739;DHT22;20063;51.730;11.110;2022-11-20T17:30:35;-1.00;99.90
33739;DHT22;20063;51.730;11.110;2022-11-20T17:33:04;-0.90;99.90
33739;DHT22;20063;51.730;11.110;2022-11-20T17:35:29;-0.70;99.90
33739;DHT22;20063;51.730;11.110;2022-11-20T17:37:58;-0.60;99.90
33739;DHT22;20063;51.730;11.110;2022-11-20T17:40:23;-0.50;99.90
33739;DHT22;20063;51.730;11.110;2022-11-20T17:42:49;-0.40;99.90
33739;DHT22;20063;51.730;11.110;2022-11-20T17:45:14;-0.30;99.90
33739;DHT22;20063;51.730;11.110;2022-11-20T17:47:40;-0.20;99.90